Kamay, Texas
Current Conditions -  °F | °C
As of 11:52 PM on Tuesday 27 Jan 2015 (Local Time) from KSPS Reporting Station
Clear Clear  
Wind Chill: 52°   Ceiling: Unl
Heat Index: 52°   Visibility: 10mi
Dew Point: 38°   Wind: 10mph
Humidity: 59%   Direction: 190°S
Pressure: 30.08"   Gusts: NA
Location:  33.86°N, 98.81°W
Report Text: KSPS 280552Z AUTO 19009KT 10SM CLR 11/03 A3008 RMK AO2 SLP179 T01110033 10206 20111 402500039 56003
Loading
Personal Weather Stations






























Interactive Weather Map New forecast layout! Learn more

10-Day Weather Forecast

Advertisements
Track Severe Weather on mobile